sensor_id;sensor_type;location;lat;lon;timestamp;pressure;altitude;pressure_sealevel;temperature;humidity
7660;BME280;3872;47.902;8.162;2023-05-24T00:01:38;92047.09;;;15.68;100.00
7660;BME280;3872;47.902;8.162;2023-05-24T00:04:06;92051.97;;;15.49;100.00
7660;BME280;3872;47.902;8.162;2023-05-24T00:06:36;92050.84;;;15.67;100.00
7660;BME280;3872;47.902;8.162;2023-05-24T00:09:03;92051.94;;;15.66;100.00
7660;BME280;3872;47.902;8.162;2023-05-24T00:11:29;92046.38;;;15.42;100.00
7660;BME280;3872;47.902;8.162;2023-05-24T00:13:56;92054.91;;;15.26;100.00
7660;BME280;3872;47.902;8.162;2023-05-24T00:16:23;92052.69;;;15.75;100.00
7660;BME280;3872;47.902;8.162;2023-05-24T00:18:49;92051.03;;;15.91;100.00
7660;BME280;3872;47.902;8.162;2023-05-24T00:21:16;92055.06;;;15.68;100.00
7660;BME280;3872;47.902;8.162;2023-05-24T00:23:44;92054.09;;;15.73;100.00
7660;BME280;3872;47.902;8.162;2023-05-24T00:26:11;92060.31;;;15.39;100.00
7660;BME280;3872;47.902;8.162;2023-05-24T00:28:42;92055.09;;;15.51;100.00
7660;BME280;3872;47.902;8.162;2023-05-24T00:31:09;92056.22;;;15.79;100.00
7660;BME280;3872;47.902;8.162;2023-05-24T00:33:36;92048.19;;;15.67;100.00
7660;BME280;3872;47.902;8.162;2023-05-24T00:36:02;92046.16;;;15.93;100.00
7660;BME280;3872;47.902;8.162;2023-05-24T00:38:29;92042.88;;;15.96;100.00
7660;BME280;3872;47.902;8.162;2023-05-24T00:40:57;92047.09;;;16.39;100.00
7660;BME280;3872;47.902;8.162;2023-05-24T00:43:25;92046.41;;;15.80;100.00
7660;BME280;3872;47.902;8.162;2023-05-24T00:46:11;92044.56;;;16.22;100.00
7660;BME280;3872;47.902;8.162;2023-05-24T00:48:38;92040.31;;;15.79;100.00
7660;BME280;3872;47.902;8.162;2023-05-24T00:51:05;92046.13;;;16.23;100.00
7660;BME280;3872;47.902;8.162;2023-05-24T00:53:32;92048.50;;;15.95;100.00
7660;BME280;3872;47.902;8.162;2023-05-24T00:56:03;92053.06;;;16.15;100.00
7660;BME280;3872;47.902;8.162;2023-05-24T00:58:30;92049.38;;;15.78;100.00
7660;BME280;3872;47.902;8.162;2023-05-24T01:00:58;92052.97;;;16.03;100.00
7660;BME280;3872;47.902;8.162;2023-05-24T01:03:25;92040.94;;;16.05;100.00
7660;BME280;3872;47.902;8.162;2023-05-24T01:05:53;92039.56;;;16.20;100.00
7660;BME280;3872;47.902;8.162;2023-05-24T01:08:33;92048.72;;;16.11;100.00
7660;BME280;3872;47.902;8.162;2023-05-24T01:11:16;92045.81;;;15.74;100.00
7660;BME280;3872;47.902;8.162;2023-05-24T01:13:49;92043.28;;;15.48;100.00
7660;BME280;3872;47.902;8.162;2023-05-24T01:16:21;92047.38;;;15.28;100.00
7660;BME280;3872;47.902;8.162;2023-05-24T01:18:53;92046.38;;;15.04;100.00
7660;BME280;3872;47.902;8.162;2023-05-24T01:21:48;92046.88;;;14.97;100.00
7660;BME280;3872;47.902;8.162;2023-05-24T01:24:24;92042.78;;;15.08;100.00
7660;BME280;3872;47.902;8.162;2023-05-24T01:27:04;92044.00;;;15.19;100.00
7660;BME280;3872;47.902;8.162;2023-05-24T01:29:34;92043.25;;;15.02;100.00
7660;BME280;3872;47.902;8.162;2023-05-24T01:32:01;92042.78;;;15.08;100.00
7660;BME280;3872;47.902;8.162;2023-05-24T01:34:27;92042.47;;;15.56;100.00
7660;BME280;3872;47.902;8.162;2023-05-24T01:36:54;92046.03;;;15.52;100.00
7660;BME280;3872;47.902;8.162;2023-05-24T01:39:22;92036.50;;;15.21;100.00
7660;BME280;3872;47.902;8.162;2023-05-24T01:41:58;92041.78;;;15.68;100.00
7660;BME280;3872;47.902;8.162;2023-05-24T01:44:35;92037.31;;;15.89;100.00
7660;BME280;3872;47.902;8.162;2023-05-24T01:47:15;92040.72;;;15.14;100.00
7660;BME280;3872;47.902;8.162;2023-05-24T01:49:49;92035.91;;;15.07;100.00
7660;BME280;3872;47.902;8.162;2023-05-24T01:52:19;92035.81;;;14.86;100.00
7660;BME280;3872;47.902;8.162;2023-05-24T01:54:50;92029.63;;;14.57;100.00
7660;BME280;3872;47.902;8.162;2023-05-24T01:57:18;92025.53;;;14.85;100.00
7660;BME280;3872;47.902;8.162;2023-05-24T01:59:46;92031.09;;;15.01;100.00
7660;BME280;3872;47.902;8.162;2023-05-24T02:02:13;92029.63;;;15.20;100.00
7660;BME280;3872;47.902;8.162;2023-05-24T02:04:40;92026.31;;;15.41;100.00
7660;BME280;3872;47.902;8.162;2023-05-24T02:07:06;92026.69;;;15.60;100.00
7660;BME280;3872;47.902;8.162;2023-05-24T02:09:33;92028.75;;;15.84;100.00
7660;BME280;3872;47.902;8.162;2023-05-24T02:12:00;92035.19;;;14.89;100.00
7660;BME280;3872;47.902;8.162;2023-05-24T02:14:26;92033.13;;;15.12;100.00
7660;BME280;3872;47.902;8.162;2023-05-24T02:16:54;92032.81;;;15.43;100.00
7660;BME280;3872;47.902;8.162;2023-05-24T02:19:23;92029.19;;;14.63;100.00
7660;BME280;3872;47.902;8.162;2023-05-24T02:21:49;92033.63;;;14.97;100.00
7660;BME280;3872;47.902;8.162;2023-05-24T02:24:17;92027.00;;;14.48;100.00
7660;BME280;3872;47.902;8.162;2023-05-24T02:26:43;92030.09;;;14.76;100.00
7660;BME280;3872;47.902;8.162;2023-05-24T02:29:10;92026.97;;;15.20;100.00
7660;BME280;3872;47.902;8.162;2023-05-24T02:31:37;92027.44;;;15.22;100.00
7660;BME280;3872;47.902;8.162;2023-05-24T02:34:04;92021.16;;;14.98;100.00
7660;BME280;3872;47.902;8.162;2023-05-24T02:36:31;92021.84;;;14.52;100.00
7660;BME280;3872;47.902;8.162;2023-05-24T02:39:00;92020.09;;;14.81;100.00
7660;BME280;3872;47.902;8.162;2023-05-24T02:41:28;92020.56;;;15.30;100.00
7660;BME280;3872;47.902;8.162;2023-05-24T02:43:54;92025.34;;;15.45;100.00
7660;BME280;3872;47.902;8.162;2023-05-24T02:46:21;92014.19;;;14.76;100.00
7660;BME280;3872;47.902;8.162;2023-05-24T02:48:47;92015.69;;;14.94;100.00
7660;BME280;3872;47.902;8.162;2023-05-24T02:51:16;92011.75;;;15.55;100.00
7660;BME280;3872;47.902;8.162;2023-05-24T02:53:42;92019.50;;;15.90;100.00
7660;BME280;3872;47.902;8.162;2023-05-24T02:56:09;92012.28;;;16.20;100.00
7660;BME280;3872;47.902;8.162;2023-05-24T02:58:38;92013.94;;;15.53;100.00
7660;BME280;3872;47.902;8.162;2023-05-24T03:01:05;92007.94;;;15.65;100.00
7660;BME280;3872;47.902;8.162;2023-05-24T03:03:33;92010.63;;;15.18;100.00
7660;BME280;3872;47.902;8.162;2023-05-24T03:05:59;92002.13;;;14.96;100.00
7660;BME280;3872;47.902;8.162;2023-05-24T03:08:27;92002.81;;;14.67;100.00
7660;BME280;3872;47.902;8.162;2023-05-24T03:10:54;91999.84;;;14.77;100.00
7660;BME280;3872;47.902;8.162;2023-05-24T03:13:20;92003.88;;;15.29;100.00
7660;BME280;3872;47.902;8.162;2023-05-24T03:15:47;91999.59;;;14.44;100.00
7660;BME280;3872;47.902;8.162;2023-05-24T03:18:14;91988.72;;;14.92;100.00
7660;BME280;3872;47.902;8.162;2023-05-24T03:20:42;91984.41;;;14.79;100.00
7660;BME280;3872;47.902;8.162;2023-05-24T03:23:08;91989.19;;;14.94;100.00
7660;BME280;3872;47.902;8.162;2023-05-24T03:25:37;91980.06;;;15.50;100.00
7660;BME280;3872;47.902;8.162;2023-05-24T03:28:03;91985.16;;;14.88;100.00
7660;BME280;3872;47.902;8.162;2023-05-24T03:30:31;91980.16;;;14.95;100.00
7660;BME280;3872;47.902;8.162;2023-05-24T03:32:58;91984.63;;;14.31;100.00
7660;BME280;3872;47.902;8.162;2023-05-24T03:35:25;91985.16;;;14.88;100.00
7660;BME280;3872;47.902;8.162;2023-05-24T03:37:52;91994.75;;;14.37;100.00
7660;BME280;3872;47.902;8.162;2023-05-24T03:40:19;91984.41;;;14.79;100.00
7660;BME280;3872;47.902;8.162;2023-05-24T03:42:56;91989.00;;;14.44;100.00
7660;BME280;3872;47.902;8.162;2023-05-24T03:45:37;91999.72;;;13.79;100.00
7660;BME280;3872;47.902;8.162;2023-05-24T03:48:04;91996.75;;;14.58;100.00
7660;BME280;3872;47.902;8.162;2023-05-24T03:50:31;91993.97;;;14.37;100.00
7660;BME280;3872;47.902;8.162;2023-05-24T03:52:58;91993.97;;;14.28;100.00
7660;BME280;3872;47.902;8.162;2023-05-24T03:55:24;92004.56;;;14.54;100.00
7660;BME280;3872;47.902;8.162;2023-05-24T03:57:51;92004.53;;;13.68;100.00
7660;BME280;3872;47.902;8.162;2023-05-24T04:00:19;92003.72;;;13.59;100.00
7660;BME280;3872;47.902;8.162;2023-05-24T04:02:47;92008.72;;;13.60;100.00
7660;BME280;3872;47.902;8.162;2023-05-24T04:05:14;92005.19;;;13.82;100.00
7660;BME280;3872;47.902;8.162;2023-05-24T04:07:41;92009.88;;;14.45;100.00
7660;BME280;3872;47.902;8.162;2023-05-24T04:10:08;92003.00;;;14.10;100.00
7660;BME280;3872;47.902;8.162;2023-05-24T04:12:35;92009.56;;;14.38;100.00
7660;BME280;3872;47.902;8.162;2023-05-24T04:15:06;92006.13;;;14.21;100.00
7660;BME280;3872;47.902;8.162;2023-05-24T04:17:34;92008.50;;;15.03;100.00
7660;BME280;3872;47.902;8.162;2023-05-24T04:20:01;92014.06;;;14.55;100.00
7660;BME280;3872;47.902;8.162;2023-05-24T04:22:31;92019.06;;;14.39;100.00
7660;BME280;3872;47.902;8.162;2023-05-24T04:24:57;92009.25;;;14.48;100.00
7660;BME280;3872;47.902;8.162;2023-05-24T04:27:24;92016.84;;;14.59;100.00
7660;BME280;3872;47.902;8.162;2023-05-24T04:29:50;92011.88;;;14.57;100.00
7660;BME280;3872;47.902;8.162;2023-05-24T04:32:17;92008.91;;;14.59;100.00
7660;BME280;3872;47.902;8.162;2023-05-24T04:34:45;92015.00;;;14.25;100.00
7660;BME280;3872;47.902;8.162;2023-05-24T04:37:12;92025.09;;;13.97;100.00
7660;BME280;3872;47.902;8.162;2023-05-24T04:39:43;92017.00;;;14.02;100.00
7660;BME280;3872;47.902;8.162;2023-05-24T04:42:10;92012.97;;;14.30;100.00
7660;BME280;3872;47.902;8.162;2023-05-24T04:44:37;92018.41;;;13.91;100.00
7660;BME280;3872;47.902;8.162;2023-05-24T04:47:05;92020.44;;;14.28;100.00
7660;BME280;3872;47.902;8.162;2023-05-24T04:49:35;92015.44;;;13.84;100.00
7660;BME280;3872;47.902;8.162;2023-05-24T04:52:03;92018.44;;;14.34;100.00
7660;BME280;3872;47.902;8.162;2023-05-24T04:54:32;92027.22;;;13.60;100.00
7660;BME280;3872;47.902;8.162;2023-05-24T04:56:59;92025.09;;;14.66;100.00
7660;BME280;3872;47.902;8.162;2023-05-24T04:59:25;92037.41;;;13.84;100.00
7660;BME280;3872;47.902;8.162;2023-05-24T05:01:52;92034.72;;;13.19;100.00
7660;BME280;3872;47.902;8.162;2023-05-24T05:04:18;92028.06;;;13.30;100.00
7660;BME280;3872;47.902;8.162;2023-05-24T05:06:47;92031.44;;;13.61;100.00
7660;BME280;3872;47.902;8.162;2023-05-24T05:09:15;92030.25;;;14.02;100.00
7660;BME280;3872;47.902;8.162;2023-05-24T05:11:43;92027.38;;;13.55;100.00
7660;BME280;3872;47.902;8.162;2023-05-24T05:14:11;92032.88;;;13.93;100.00
7660;BME280;3872;47.902;8.162;2023-05-24T05:16:37;92030.25;;;13.85;100.00
7660;BME280;3872;47.902;8.162;2023-05-24T05:19:05;92024.59;;;13.69;100.00
7660;BME280;3872;47.902;8.162;2023-05-24T05:21:32;92029.47;;;14.19;100.00
7660;BME280;3872;47.902;8.162;2023-05-24T05:24:01;92022.81;;;13.39;100.00
7660;BME280;3872;47.902;8.162;2023-05-24T05:26:30;92024.34;;;13.96;100.00
7660;BME280;3872;47.902;8.162;2023-05-24T05:28:57;92023.84;;;13.29;100.00
7660;BME280;3872;47.902;8.162;2023-05-24T05:31:24;92016.38;;;14.22;100.00
7660;BME280;3872;47.902;8.162;2023-05-24T05:33:50;92019.38;;;14.55;100.00
7660;BME280;3872;47.902;8.162;2023-05-24T05:36:17;92016.84;;;14.59;100.00
7660;BME280;3872;47.902;8.162;2023-05-24T05:38:44;92021.53;;;13.84;100.00
7660;BME280;3872;47.902;8.162;2023-05-24T05:41:10;92020.75;;;14.35;100.00
7660;BME280;3872;47.902;8.162;2023-05-24T05:43:38;92023.34;;;14.96;100.00
7660;BME280;3872;47.902;8.162;2023-05-24T05:46:05;92027.56;;;13.76;100.00
7660;BME280;3872;47.902;8.162;2023-05-24T05:48:31;92029.94;;;14.03;100.00
7660;BME280;3872;47.902;8.162;2023-05-24T05:50:58;92036.91;;;13.73;100.00
7660;BME280;3872;47.902;8.162;2023-05-24T05:53:24;92037.25;;;13.98;100.00
7660;BME280;3872;47.902;8.162;2023-05-24T05:55:51;92035.66;;;13.80;100.00
7660;BME280;3872;47.902;8.162;2023-05-24T05:58:17;92033.97;;;14.01;100.00
7660;BME280;3872;47.902;8.162;2023-05-24T06:00:45;92039.19;;;13.58;100.00
7660;BME280;3872;47.902;8.162;2023-05-24T06:03:12;92029.28;;;13.63;100.00
7660;BME280;3872;47.902;8.162;2023-05-24T06:05:38;92033.03;;;13.71;100.00
7660;BME280;3872;47.902;8.162;2023-05-24T06:08:05;92037.06;;;13.29;100.00
7660;BME280;3872;47.902;8.162;2023-05-24T06:10:31;92036.47;;;13.32;100.00
7660;BME280;3872;47.902;8.162;2023-05-24T06:13:00;92032.72;;;13.90;100.00
7660;BME280;3872;47.902;8.162;2023-05-24T06:15:26;92033.50;;;13.82;100.00
7660;BME280;3872;47.902;8.162;2023-05-24T06:17:54;92031.78;;;13.77;100.00
7660;BME280;3872;47.902;8.162;2023-05-24T06:20:21;92036.78;;;13.30;100.00
7660;BME280;3872;47.902;8.162;2023-05-24T06:22:48;92035.47;;;13.59;100.00
7660;BME280;3872;47.902;8.162;2023-05-24T06:25:15;92034.28;;;13.82;100.00
7660;BME280;3872;47.902;8.162;2023-05-24T06:27:43;92037.03;;;13.68;100.00
7660;BME280;3872;47.902;8.162;2023-05-24T06:30:10;92039.03;;;13.54;100.00
7660;BME280;3872;47.902;8.162;2023-05-24T06:32:36;92043.94;;;13.95;100.00
7660;BME280;3872;47.902;8.162;2023-05-24T06:35:06;92045.19;;;14.15;100.00
7660;BME280;3872;47.902;8.162;2023-05-24T06:37:33;92048.00;;;14.19;100.00
7660;BME280;3872;47.902;8.162;2023-05-24T06:39:59;92042.22;;;13.91;100.00
7660;BME280;3872;47.902;8.162;2023-05-24T06:42:26;92053.56;;;14.00;100.00
7660;BME280;3872;47.902;8.162;2023-05-24T06:44:52;92057.16;;;13.95;100.00
7660;BME280;3872;47.902;8.162;2023-05-24T06:47:20;92048.13;;;14.91;100.00
7660;BME280;3872;47.902;8.162;2023-05-24T06:49:46;92055.66;;;14.46;100.00
7660;BME280;3872;47.902;8.162;2023-05-24T06:52:15;92054.09;;;14.45;100.00
7660;BME280;3872;47.902;8.162;2023-05-24T06:54:42;92050.59;;;15.05;100.00
7660;BME280;3872;47.902;8.162;2023-05-24T06:57:08;92050.78;;;14.91;100.00
7660;BME280;3872;47.902;8.162;2023-05-24T06:59:35;92053.13;;;14.84;100.00
7660;BME280;3872;47.902;8.162;2023-05-24T07:02:01;92056.28;;;15.24;100.00
7660;BME280;3872;47.902;8.162;2023-05-24T07:04:28;92052.97;;;14.89;100.00
7660;BME280;3872;47.902;8.162;2023-05-24T07:06:55;92053.88;;;14.93;100.00
7660;BME280;3872;47.902;8.162;2023-05-24T07:09:23;92057.91;;;14.99;100.00
7660;BME280;3872;47.902;8.162;2023-05-24T07:11:49;92052.31;;;14.92;100.00
7660;BME280;3872;47.902;8.162;2023-05-24T07:14:16;92055.47;;;15.41;100.00
7660;BME280;3872;47.902;8.162;2023-05-24T07:16:42;92063.56;;;14.89;100.00
7660;BME280;3872;47.902;8.162;2023-05-24T07:19:09;92061.88;;;15.31;100.00
7660;BME280;3872;47.902;8.162;2023-05-24T07:21:37;92068.38;;;14.96;100.00
7660;BME280;3872;47.902;8.162;2023-05-24T07:24:04;92066.75;;;15.20;100.00
7660;BME280;3872;47.902;8.162;2023-05-24T07:26:32;92069.91;;;15.60;100.00
7660;BME280;3872;47.902;8.162;2023-05-24T07:28:59;92074.97;;;15.83;99.89
7660;BME280;3872;47.902;8.162;2023-05-24T07:31:25;92061.59;;;15.71;100.00
7660;BME280;3872;47.902;8.162;2023-05-24T07:33:55;92069.16;;;15.89;100.00
7660;BME280;3872;47.902;8.162;2023-05-24T07:36:22;92061.00;;;15.18;100.00
7660;BME280;3872;47.902;8.162;2023-05-24T07:38:50;92064.50;;;15.40;100.00
7660;BME280;3872;47.902;8.162;2023-05-24T07:41:16;92060.84;;;15.06;100.00
7660;BME280;3872;47.902;8.162;2023-05-24T07:43:44;92062.78;;;15.35;100.00
7660;BME280;3872;47.902;8.162;2023-05-24T07:46:11;92061.41;;;14.74;100.00
7660;BME280;3872;47.902;8.162;2023-05-24T07:48:37;92063.28;;;15.28;100.00
7660;BME280;3872;47.902;8.162;2023-05-24T07:51:04;92064.72;;;15.26;100.00
7660;BME280;3872;47.902;8.162;2023-05-24T07:53:30;92065.94;;;15.28;100.00
7660;BME280;3872;47.902;8.162;2023-05-24T07:55:58;92065.72;;;14.96;100.00
7660;BME280;3872;47.902;8.162;2023-05-24T07:58:24;92074.50;;;14.44;100.00
7660;BME280;3872;47.902;8.162;2023-05-24T08:00:53;92067.41;;;15.09;100.00
7660;BME280;3872;47.902;8.162;2023-05-24T08:03:19;92062.34;;;14.61;100.00
7660;BME280;3872;47.902;8.162;2023-05-24T08:05:46;92076.50;;;14.73;100.00
7660;BME280;3872;47.902;8.162;2023-05-24T08:08:12;92069.97;;;14.71;100.00
7660;BME280;3872;47.902;8.162;2023-05-24T08:10:39;92070.13;;;14.74;100.00
7660;BME280;3872;47.902;8.162;2023-05-24T08:13:06;92071.22;;;15.37;100.00
7660;BME280;3872;47.902;8.162;2023-05-24T08:15:32;92065.91;;;15.84;100.00
7660;BME280;3872;47.902;8.162;2023-05-24T08:18:00;92066.47;;;15.51;100.00
7660;BME280;3872;47.902;8.162;2023-05-24T08:20:27;92070.88;;;15.85;100.00
7660;BME280;3872;47.902;8.162;2023-05-24T08:22:54;92074.78;;;15.88;100.00
7660;BME280;3872;47.902;8.162;2023-05-24T08:25:21;92078.78;;;15.18;100.00
7660;BME280;3872;47.902;8.162;2023-05-24T08:27:47;92080.53;;;15.05;100.00
7660;BME280;3872;47.902;8.162;2023-05-24T08:30:14;92085.50;;;15.07;100.00
7660;BME280;3872;47.902;8.162;2023-05-24T08:32:40;92087.84;;;15.00;100.00
7660;BME280;3872;47.902;8.162;2023-05-24T08:35:08;92084.25;;;15.13;100.00
7660;BME280;3872;47.902;8.162;2023-05-24T08:37:35;92085.84;;;14.97;100.00
7660;BME280;3872;47.902;8.162;2023-05-24T08:40:02;92085.84;;;14.36;100.00
7660;BME280;3872;47.902;8.162;2023-05-24T08:42:29;92081.94;;;14.85;100.00
7660;BME280;3872;47.902;8.162;2023-05-24T08:44:58;92086.41;;;13.33;100.00
7660;BME280;3872;47.902;8.162;2023-05-24T08:47:29;92093.19;;;14.39;100.00
7660;BME280;3872;47.902;8.162;2023-05-24T08:49:56;92090.22;;;14.67;100.00
7660;BME280;3872;47.902;8.162;2023-05-24T08:52:25;92095.16;;;14.17;100.00
7660;BME280;3872;47.902;8.162;2023-05-24T08:54:53;92088.66;;;14.92;100.00
7660;BME280;3872;47.902;8.162;2023-05-24T08:57:21;92085.34;;;15.12;100.00
7660;BME280;3872;47.902;8.162;2023-05-24T08:59:48;92082.88;;;14.89;100.00
7660;BME280;3872;47.902;8.162;2023-05-24T09:02:15;92074.19;;;15.82;99.23
7660;BME280;3872;47.902;8.162;2023-05-24T09:04:42;92078.56;;;16.08;98.53
7660;BME280;3872;47.902;8.162;2023-05-24T09:07:12;92080.06;;;16.17;93.34
7660;BME280;3872;47.902;8.162;2023-05-24T09:09:42;92083.81;;;16.58;90.21
7660;BME280;3872;47.902;8.162;2023-05-24T09:12:14;92077.91;;;16.94;86.89
7660;BME280;3872;47.902;8.162;2023-05-24T09:14:44;92070.69;;;17.96;74.93
7660;BME280;3872;47.902;8.162;2023-05-24T09:17:11;92074.50;;;16.10;88.77
7660;BME280;3872;47.902;8.162;2023-05-24T09:19:43;92077.84;;;15.69;94.93
7660;BME280;3872;47.902;8.162;2023-05-24T09:22:11;92070.03;;;16.23;89.64
7660;BME280;3872;47.902;8.162;2023-05-24T09:24:45;92072.03;;;16.05;94.50
7660;BME280;3872;47.902;8.162;2023-05-24T09:27:13;92070.25;;;15.88;95.86
7660;BME280;3872;47.902;8.162;2023-05-24T09:29:40;92074.44;;;16.19;94.72
7660;BME280;3872;47.902;8.162;2023-05-24T09:32:08;92069.44;;;16.17;99.21
7660;BME280;3872;47.902;8.162;2023-05-24T09:34:37;92076.75;;;16.20;93.84
7660;BME280;3872;47.902;8.162;2023-05-24T09:37:04;92076.38;;;15.80;96.46
7660;BME280;3872;47.902;8.162;2023-05-24T09:39:32;92076.91;;;15.65;100.00
7660;BME280;3872;47.902;8.162;2023-05-24T09:42:01;92081.00;;;15.62;100.00
7660;BME280;3872;47.902;8.162;2023-05-24T09:44:28;92091.25;;;16.02;96.83
7660;BME280;3872;47.902;8.162;2023-05-24T09:47:00;92092.31;;;15.34;100.00
7660;BME280;3872;47.902;8.162;2023-05-24T09:49:28;92094.28;;;14.90;100.00
7660;BME280;3872;47.902;8.162;2023-05-24T09:51:54;92094.41;;;14.85;100.00
7660;BME280;3872;47.902;8.162;2023-05-24T09:54:21;92095.06;;;14.47;100.00
7660;BME280;3872;47.902;8.162;2023-05-24T09:56:50;92103.94;;;14.52;100.00
7660;BME280;3872;47.902;8.162;2023-05-24T09:59:18;92095.84;;;14.48;100.00
7660;BME280;3872;47.902;8.162;2023-05-24T10:01:45;92095.50;;;14.93;100.00
7660;BME280;3872;47.902;8.162;2023-05-24T10:04:11;92107.06;;;14.54;100.00
7660;BME280;3872;47.902;8.162;2023-05-24T10:06:40;92108.16;;;14.70;100.00
7660;BME280;3872;47.902;8.162;2023-05-24T10:09:08;92107.94;;;14.23;100.00
7660;BME280;3872;47.902;8.162;2023-05-24T10:11:35;92112.22;;;14.41;100.00
7660;BME280;3872;47.902;8.162;2023-05-24T10:14:03;92107.53;;;14.38;100.00
7660;BME280;3872;47.902;8.162;2023-05-24T10:16:31;92114.34;;;14.31;100.00
7660;BME280;3872;47.902;8.162;2023-05-24T10:18:57;92113.97;;;13.98;100.00
7660;BME280;3872;47.902;8.162;2023-05-24T10:21:26;92116.66;;;14.15;100.00
7660;BME280;3872;47.902;8.162;2023-05-24T10:23:58;92116.97;;;14.22;100.00
7660;BME280;3872;47.902;8.162;2023-05-24T10:26:28;92117.31;;;13.72;100.00
7660;BME280;3872;47.902;8.162;2023-05-24T10:29:00;92124.81;;;13.70;100.00
7660;BME280;3872;47.902;8.162;2023-05-24T10:31:32;92118.50;;;13.58;100.00
7660;BME280;3872;47.902;8.162;2023-05-24T10:34:02;92120.06;;;13.59;100.00
7660;BME280;3872;47.902;8.162;2023-05-24T10:36:31;92121.50;;;14.13;100.00
7660;BME280;3872;47.902;8.162;2023-05-24T10:38:58;92124.47;;;13.72;100.00
7660;BME280;3872;47.902;8.162;2023-05-24T10:41:26;92135.28;;;13.22;100.00
7660;BME280;3872;47.902;8.162;2023-05-24T10:43:53;92130.84;;;13.31;100.00
7660;BME280;3872;47.902;8.162;2023-05-24T10:46:20;92127.47;;;13.40;100.00
7660;BME280;3872;47.902;8.162;2023-05-24T10:48:59;92122.19;;;13.88;100.00
7660;BME280;3872;47.902;8.162;2023-05-24T10:51:29;92126.19;;;14.33;100.00
7660;BME280;3872;47.902;8.162;2023-05-24T10:54:09;92132.16;;;13.43;100.00
7660;BME280;3872;47.902;8.162;2023-05-24T10:56:39;92124.03;;;13.39;100.00
7660;BME280;3872;47.902;8.162;2023-05-24T10:59:05;92128.63;;;13.25;100.00
7660;BME280;3872;47.902;8.162;2023-05-24T11:01:33;92131.56;;;13.23;100.00
7660;BME280;3872;47.902;8.162;2023-05-24T11:04:08;92128.13;;;14.02;100.00
7660;BME280;3872;47.902;8.162;2023-05-24T11:06:45;92136.19;;;12.95;100.00
7660;BME280;3872;47.902;8.162;2023-05-24T11:09:13;92126.00;;;13.64;100.00
7660;BME280;3872;47.902;8.162;2023-05-24T11:11:43;92129.09;;;13.58;100.00
7660;BME280;3872;47.902;8.162;2023-05-24T11:14:11;92134.41;;;14.06;100.00
7660;BME280;3872;47.902;8.162;2023-05-24T11:16:38;92143.53;;;13.21;100.00
7660;BME280;3872;47.902;8.162;2023-05-24T11:19:13;92131.22;;;13.78;100.00
7660;BME280;3872;47.902;8.162;2023-05-24T11:21:43;92135.88;;;14.38;100.00
7660;BME280;3872;47.902;8.162;2023-05-24T11:24:11;92133.13;;;14.03;100.00
7660;BME280;3872;47.902;8.162;2023-05-24T11:26:38;92127.06;;;14.03;100.00
7660;BME280;3872;47.902;8.162;2023-05-24T11:29:06;92133.06;;;13.86;100.00
7660;BME280;3872;47.902;8.162;2023-05-24T11:31:32;92133.06;;;13.78;100.00
7660;BME280;3872;47.902;8.162;2023-05-24T11:33:59;92130.53;;;14.29;100.00
7660;BME280;3872;47.902;8.162;2023-05-24T11:36:27;92128.31;;;14.05;100.00
7660;BME280;3872;47.902;8.162;2023-05-24T11:38:54;92126.94;;;14.17;100.00
7660;BME280;3872;47.902;8.162;2023-05-24T11:41:20;92140.28;;;14.03;100.00
7660;BME280;3872;47.902;8.162;2023-05-24T11:43:47;92132.09;;;14.30;100.00
7660;BME280;3872;47.902;8.162;2023-05-24T11:46:14;92130.88;;;14.97;91.11
7660;BME280;3872;47.902;8.162;2023-05-24T11:48:41;92134.94;;;15.11;87.59
7660;BME280;3872;47.902;8.162;2023-05-24T11:51:07;92135.44;;;14.70;88.82
7660;BME280;3872;47.902;8.162;2023-05-24T11:53:36;92128.69;;;14.38;98.06
7660;BME280;3872;47.902;8.162;2023-05-24T11:56:03;92128.97;;;14.37;98.09
7660;BME280;3872;47.902;8.162;2023-05-24T11:58:47;92123.09;;;14.40;99.20
7660;BME280;3872;47.902;8.162;2023-05-24T12:01:24;92125.75;;;14.66;95.67
7660;BME280;3872;47.902;8.162;2023-05-24T12:03:51;92120.94;;;14.76;95.74
7660;BME280;3872;47.902;8.162;2023-05-24T12:06:19;92112.66;;;14.86;93.83
7660;BME280;3872;47.902;8.162;2023-05-24T12:08:48;92118.25;;;14.33;96.46
7660;BME280;3872;47.902;8.162;2023-05-24T12:11:15;92123.81;;;14.23;96.83
7660;BME280;3872;47.902;8.162;2023-05-24T12:13:42;92107.34;;;14.26;94.73
7660;BME280;3872;47.902;8.162;2023-05-24T12:16:10;92112.47;;;15.09;87.38
7660;BME280;3872;47.902;8.162;2023-05-24T12:18:38;92114.28;;;15.34;89.94
7660;BME280;3872;47.902;8.162;2023-05-24T12:21:07;92109.41;;;15.91;80.70
7660;BME280;3872;47.902;8.162;2023-05-24T12:23:35;92100.53;;;16.37;75.87
7660;BME280;3872;47.902;8.162;2023-05-24T12:26:03;92107.63;;;15.75;77.09
7660;BME280;3872;47.902;8.162;2023-05-24T12:28:33;92100.44;;;16.34;79.38
7660;BME280;3872;47.902;8.162;2023-05-24T12:31:01;92100.84;;;17.19;68.51
7660;BME280;3872;47.902;8.162;2023-05-24T12:33:29;92100.06;;;16.65;73.78
7660;BME280;3872;47.902;8.162;2023-05-24T12:35:56;92093.81;;;17.02;71.53
7660;BME280;3872;47.902;8.162;2023-05-24T12:38:23;92093.97;;;17.18;67.21
7660;BME280;3872;47.902;8.162;2023-05-24T12:40:50;92092.13;;;16.77;67.95
7660;BME280;3872;47.902;8.162;2023-05-24T12:43:19;92083.66;;;17.86;60.32
7660;BME280;3872;47.902;8.162;2023-05-24T12:45:46;92072.13;;;18.18;59.05
7660;BME280;3872;47.902;8.162;2023-05-24T12:48:13;92079.28;;;18.66;56.79
7660;BME280;3872;47.902;8.162;2023-05-24T12:50:39;92081.72;;;18.59;55.33
7660;BME280;3872;47.902;8.162;2023-05-24T12:53:06;92072.00;;;18.15;56.65
7660;BME280;3872;47.902;8.162;2023-05-24T12:55:32;92074.91;;;17.73;57.37
7660;BME280;3872;47.902;8.162;2023-05-24T12:57:59;92069.47;;;18.70;54.80
7660;BME280;3872;47.902;8.162;2023-05-24T13:00:28;92076.41;;;18.35;54.65
7660;BME280;3872;47.902;8.162;2023-05-24T13:02:55;92070.13;;;18.15;55.73
7660;BME280;3872;47.902;8.162;2023-05-24T13:05:23;92074.69;;;17.66;58.54
7660;BME280;3872;47.902;8.162;2023-05-24T13:07:51;92081.84;;;17.08;61.80
7660;BME280;3872;47.902;8.162;2023-05-24T13:10:18;92073.25;;;16.08;68.15
7660;BME280;3872;47.902;8.162;2023-05-24T13:12:44;92073.81;;;17.29;63.40
7660;BME280;3872;47.902;8.162;2023-05-24T13:15:12;92067.91;;;17.11;63.37
7660;BME280;3872;47.902;8.162;2023-05-24T13:17:40;92075.22;;;16.81;62.99